Gentle Leader — C6WY9 — position and weather

sailwx.info

Track history (hours):
 
Tides and Currents Weather Stations Pressure Air Temp Water Temp Dewpoint Dewpoint Depression Visibility Wind Speed Wind Dir Waves Ship Positions

Gentle Leader

Last reported at 2014-Dec-22 06:33 UTC. Time now 2014-Dec-22 08:31 UTC.
Position S 37°54' E 149°49'.

Length 200 m; draft 7.9 m.

Type: Cargo ship. MMSI: 311003300.

Date/timePositionNaut miles runAvg speedWind from/ knotsBaromVisibWave heightAir tempDewpointWater temp
2014-Dec-22 06:33S 37°54' E 149°49'1413.7
2014-Dec-22 05:33S 38°02' E 149°35'1414.2
2014-Dec-22 04:34S 38°10' E 149°20'1514.5
2014-Dec-22 03:34S 38°19' E 149°05'1514.7
2014-Dec-22 02:34S 38°28' E 148°50'1515.4
2014-Dec-22 01:34S 38°36' E 148°34'1514.3
2014-Dec-22 00:32S 38°45' E 148°19'1313.8
2014-Dec-21 23:34S 38°51' E 148°03'1413.7
2014-Dec-21 22:33S 38°55' E 147°46'1414.2
2014-Dec-21 21:34S 39°00' E 147°29'1514.7
2014-Dec-21 20:34S 39°06' E 147°12'1515.3
2014-Dec-21 19:34S 39°11' E 146°53'1615.6
2014-Dec-21 18:31S 39°17' E 146°34'1515.7
2014-Dec-21 17:34S 39°17' E 146°14'1515.4
2014-Dec-21 16:34S 39°15' E 145°55'1515.2
2014-Dec-21 15:33S 39°14' E 145°35'1515.1
2014-Dec-21 14:34S 39°13' E 145°16'1515.0
2014-Dec-21 13:34S 39°11' E 144°57'1515.1
2014-Dec-21 12:34S 39°09' E 144°37'1515.3
2014-Dec-21 11:33S 39°08' E 144°18'1615.5
2014-Dec-21 10:33S 39°07' E 143°57'1615.7
2014-Dec-21 09:33S 39°05' E 143°37'1615.7
2014-Dec-21 08:33S 39°02' E 143°17'1515.4
2014-Dec-21 07:33S 38°58' E 142°58'1515.1
2014-Dec-21 06:33S 38°55' E 142°39'1515.1
2014-Dec-21 05:33S 38°51' E 142°21'1515.1
2014-Dec-21 04:33S 38°47' E 142°02'1514.9
2014-Dec-21 03:33S 38°43' E 141°43'1515.1
2014-Dec-21 02:33S 38°39' E 141°25'1514.9
2014-Dec-21 01:33S 38°32' E 141°08'1515.0
2014-Dec-21 00:33S 38°25' E 140°51'3615.2
2014-Dec-20 22:13S 38°07' E 140°12'15714.7
2014-Dec-20 11:30S 35°57' E 138°21'1714.9
2014-Dec-20 10:23S 35°45' E 138°08'1213.5
2014-Dec-20 09:32S 35°34' E 138°01'2713.9
2014-Dec-20 07:33S 35°08' E 138°10'9 8.5
2014-Dec-20 06:33S 35°01' E 138°16'1512.0
2014-Dec-20 05:18S 34°47' E 138°24'4 5.2
2014-Dec-20 04:33S 34°46' E 138°29'6 0.3
2014-Dec-19 07:07S 34°48' E 138°23'15 9.4
2014-Dec-19 05:30S 35°02' E 138°15'1211.9
2014-Dec-19 04:30S 35°13' E 138°10'2813.2
2014-Dec-19 02:23S 35°40' E 138°02'24915.7
2014-Dec-18 10:31S 38°41' E 141°35'1616.8
2014-Dec-18 09:33S 38°45' E 141°56'1514.8
2014-Dec-18 08:33S 38°50' E 142°14'1715.9
2014-Dec-18 07:29S 38°54' E 142°35'277 5.6
2014-Dec-16 06:08S 38°35' E 148°29'1415.5
2014-Dec-16 05:14S 38°27' E 148°43'2614.9
2014-Dec-16 03:28S 38°13' E 149°11'  
2014-Dec-13 23:07S 33°16' E 152°11'712.5
2014-Dec-13 22:33S 33°10' E 152°15'1312.8
2014-Dec-13 21:33S 32°60' E 152°24'1615.7
2014-Dec-13 20:33S 32°47' E 152°35'1616.3
2014-Dec-13 19:33S 32°33' E 152°46'26816.3
2014-Dec-13 03:11S 28°11' E 153°48'813.1
2014-Dec-13 02:33S 28°03' E 153°47'1414.2
2014-Dec-13 01:33S 27°49' E 153°53'1413.7
2014-Dec-13 00:33S 27°36' E 153°52'1110.9
2014-Dec-12 23:34S 27°26' E 153°47'1211.5
2014-Dec-12 22:33S 27°14' E 153°45'1212.3
2014-Dec-12 21:34S 27°03' E 153°42'1312.6
2014-Dec-12 20:33S 26°52' E 153°34'1414.4
2014-Dec-12 19:33S 26°45' E 153°20'8 8.5
2014-Dec-12 18:34S 26°47' E 153°11'1616.1
2014-Dec-12 17:33S 27°03' E 153°16'1413.6
2014-Dec-12 16:34S 27°16' E 153°16'9 8.4
2014-Dec-12 15:33S 27°23' E 153°10'0 0.0
2014-Dec-12 14:33S 27°23' E 153°10'0 0.0
2014-Dec-12 13:33S 27°23' E 153°10'0 0.0
2014-Dec-12 12:33S 27°23' E 153°10'0 0.0
2014-Dec-12 11:33S 27°23' E 153°10'0 0.0
2014-Dec-12 10:33S 27°23' E 153°10'0 0.0
2014-Dec-12 09:33S 27°23' E 153°10'0 0.0
2014-Dec-12 08:33S 27°23' E 153°10'0 0.0
2014-Dec-12 07:33S 27°23' E 153°10'  
Track history (hours):
 
Tides and Currents Weather Stations Pressure Air Temp Water Temp Dewpoint Dewpoint Depression Visibility Wind Speed Wind Dir Waves Ship Positions

Gentle Leader

Last reported at 2014-Dec-22 06:33 UTC. Time now 2014-Dec-22 08:31 UTC.
Position S 37°54' E 149°49'.

Length 200 m; draft 7.9 m.

Type: Cargo ship. MMSI: 311003300.

Date/timePositionNaut miles runAvg speedWind from/ knotsBaromVisibWave heightAir tempDewpointWater temp
2014-Dec-22 06:33S 37°54' E 149°49'1413.7
2014-Dec-22 05:33S 38°02' E 149°35'1414.2
2014-Dec-22 04:34S 38°10' E 149°20'1514.5
2014-Dec-22 03:34S 38°19' E 149°05'1514.7
2014-Dec-22 02:34S 38°28' E 148°50'1515.4
2014-Dec-22 01:34S 38°36' E 148°34'1514.3
2014-Dec-22 00:32S 38°45' E 148°19'1313.8
2014-Dec-21 23:34S 38°51' E 148°03'1413.7
2014-Dec-21 22:33S 38°55' E 147°46'1414.2
2014-Dec-21 21:34S 39°00' E 147°29'1514.7
2014-Dec-21 20:34S 39°06' E 147°12'1515.3
2014-Dec-21 19:34S 39°11' E 146°53'1615.6
2014-Dec-21 18:31S 39°17' E 146°34'1515.7
2014-Dec-21 17:34S 39°17' E 146°14'1515.4
2014-Dec-21 16:34S 39°15' E 145°55'1515.2
2014-Dec-21 15:33S 39°14' E 145°35'1515.1
2014-Dec-21 14:34S 39°13' E 145°16'1515.0
2014-Dec-21 13:34S 39°11' E 144°57'1515.1
2014-Dec-21 12:34S 39°09' E 144°37'1515.3
2014-Dec-21 11:33S 39°08' E 144°18'1615.5
2014-Dec-21 10:33S 39°07' E 143°57'1615.7
2014-Dec-21 09:33S 39°05' E 143°37'1615.7
2014-Dec-21 08:33S 39°02' E 143°17'1515.4
2014-Dec-21 07:33S 38°58' E 142°58'1515.1
2014-Dec-21 06:33S 38°55' E 142°39'1515.1
2014-Dec-21 05:33S 38°51' E 142°21'1515.1
2014-Dec-21 04:33S 38°47' E 142°02'1514.9
2014-Dec-21 03:33S 38°43' E 141°43'1515.1
2014-Dec-21 02:33S 38°39' E 141°25'1514.9
2014-Dec-21 01:33S 38°32' E 141°08'1515.0
2014-Dec-21 00:33S 38°25' E 140°51'3615.2
2014-Dec-20 22:13S 38°07' E 140°12'15714.7
2014-Dec-20 11:30S 35°57' E 138°21'1714.9
2014-Dec-20 10:23S 35°45' E 138°08'1213.5
2014-Dec-20 09:32S 35°34' E 138°01'2713.9
2014-Dec-20 07:33S 35°08' E 138°10'9 8.5
2014-Dec-20 06:33S 35°01' E 138°16'1512.0
2014-Dec-20 05:18S 34°47' E 138°24'4 5.2
2014-Dec-20 04:33S 34°46' E 138°29'6 0.3
2014-Dec-19 07:07S 34°48' E 138°23'15 9.4
2014-Dec-19 05:30S 35°02' E 138°15'1211.9
2014-Dec-19 04:30S 35°13' E 138°10'2813.2
2014-Dec-19 02:23S 35°40' E 138°02'24915.7
2014-Dec-18 10:31S 38°41' E 141°35'1616.8
2014-Dec-18 09:33S 38°45' E 141°56'1514.8
2014-Dec-18 08:33S 38°50' E 142°14'1715.9
2014-Dec-18 07:29S 38°54' E 142°35'277 5.6
2014-Dec-16 06:08S 38°35' E 148°29'1415.5
2014-Dec-16 05:14S 38°27' E 148°43'2614.9
2014-Dec-16 03:28S 38°13' E 149°11'  
2014-Dec-13 23:07S 33°16' E 152°11'712.5
2014-Dec-13 22:33S 33°10' E 152°15'1312.8
2014-Dec-13 21:33S 32°60' E 152°24'1615.7
2014-Dec-13 20:33S 32°47' E 152°35'1616.3
2014-Dec-13 19:33S 32°33' E 152°46'26816.3
2014-Dec-13 03:11S 28°11' E 153°48'813.1
2014-Dec-13 02:33S 28°03' E 153°47'1414.2
2014-Dec-13 01:33S 27°49' E 153°53'1413.7
2014-Dec-13 00:33S 27°36' E 153°52'1110.9
2014-Dec-12 23:34S 27°26' E 153°47'1211.5
2014-Dec-12 22:33S 27°14' E 153°45'1212.3
2014-Dec-12 21:34S 27°03' E 153°42'1312.6
2014-Dec-12 20:33S 26°52' E 153°34'1414.4
2014-Dec-12 19:33S 26°45' E 153°20'8 8.5
2014-Dec-12 18:34S 26°47' E 153°11'1616.1
2014-Dec-12 17:33S 27°03' E 153°16'1413.6
2014-Dec-12 16:34S 27°16' E 153°16'9 8.4
2014-Dec-12 15:33S 27°23' E 153°10'0 0.0
2014-Dec-12 14:33S 27°23' E 153°10'0 0.0
2014-Dec-12 13:33S 27°23' E 153°10'0 0.0
2014-Dec-12 12:33S 27°23' E 153°10'0 0.0
2014-Dec-12 11:33S 27°23' E 153°10'0 0.0
2014-Dec-12 10:33S 27°23' E 153°10'0 0.0
2014-Dec-12 09:33S 27°23' E 153°10'0 0.0
2014-Dec-12 08:33S 27°23' E 153°10'0 0.0
2014-Dec-12 07:33S 27°23' E 153°10'  

Dump ship's entire track history